Time;durP1;ratioP1;P1;durP2;ratioP2;P2;SDS_P1;SDS_P2;PMS_P1;PMS_P2;Temp;Humidity;BMP_temperature;BMP_pressure;BME280_temperature;BME280_humidity;BME280_pressure;Samples;Min_cycle;Max_cycle;Signal;HPM_P1;HPM_P2
2023/10/02 06:46:26;;;;;;;;;21.50;19.25;;;;;25.91;49.25;101562.06;5154957;27;45299;-60
2023/10/02 06:48:54;;;;;;;;;18.50;15.75;;;;;26.36;48.42;101554.81;5137512;27;45340;-60
2023/10/02 06:51:20;;;;;;;;;17.25;16.50;;;;;26.67;46.96;101549.84;5136797;27;45373;-61
2023/10/02 06:53:46;;;;;;;;;15.25;14.25;;;;;26.85;46.66;101544.34;5136501;27;45479;-61
2023/10/02 06:56:12;;;;;;;;;19.50;18.25;;;;;27.02;46.40;101554.53;5137034;27;46047;-61
2023/10/02 06:58:53;;;;;;;;;19.25;18.50;;;;;27.13;45.46;101553.44;5137514;27;45385;-60
2023/10/02 07:01:18;;;;;;;;;19.25;17.50;;;;;27.26;45.10;101556.63;5137595;27;45283;-61
2023/10/02 07:03:51;;;;;;;;;17.75;17.75;;;;;27.37;45.27;101555.53;5137361;27;45240;-62
2023/10/02 07:06:20;;;;;;;;;24.00;14.25;;;;;27.59;45.07;101559.69;5136522;27;46227;-60
2023/10/02 07:09:09;;;;;;;;;16.50;14.75;;;;;27.64;44.52;101560.09;5137229;27;45230;-60
2023/10/02 07:11:35;;;;;;;;;19.50;18.75;;;;;27.79;43.88;101558.47;5124446;27;45480;-60
2023/10/02 07:14:03;;;;;;;;;17.25;15.00;;;;;27.89;43.19;101559.22;5116425;27;46082;-60
2023/10/02 07:16:32;;;;;;;;;16.00;15.75;;;;;27.96;43.28;101562.19;5137430;27;46175;-60
2023/10/02 07:18:59;;;;;;;;;19.75;17.25;;;;;28.04;43.91;101562.22;5133295;27;45531;-60
2023/10/02 07:21:27;;;;;;;;;18.50;16.75;;;;;28.20;43.01;101567.84;5135248;27;45859;-61
2023/10/02 07:23:53;;;;;;;;;21.00;17.75;;;;;28.13;43.17;101544.69;5135024;27;45544;-59
2023/10/02 07:26:19;;;;;;;;;18.25;15.75;;;;;28.36;42.39;101570.69;5135554;27;47118;-61
2023/10/02 07:28:52;;;;;;;;;24.25;19.75;;;;;28.40;42.20;101561.06;5136393;27;45256;-60
2023/10/02 07:31:21;;;;;;;;;19.50;18.25;;;;;28.47;42.59;101564.88;5136212;27;45384;-61
2023/10/02 07:33:47;;;;;;;;;18.50;15.50;;;;;28.46;42.13;101562.28;5134950;27;45476;-60
2023/10/02 07:36:16;;;;;;;;;21.25;17.25;;;;;28.46;41.79;101563.16;5135543;27;46903;-61
2023/10/02 07:38:42;;;;;;;;;18.50;17.00;;;;;28.37;42.12;101547.59;5136256;27;45482;-60
2023/10/02 07:41:23;;;;;;;;;16.50;15.25;;;;;28.59;42.20;101558.00;5136361;27;45394;-60
2023/10/02 07:43:53;;;;;;;;;20.25;19.25;;;;;28.60;42.03;101550.59;5132984;27;45554;-60
2023/10/02 07:46:21;;;;;;;;;26.50;21.75;;;;;28.56;41.67;101547.31;5128164;27;45898;-60
2023/10/02 07:49:00;;;;;;;;;24.25;17.00;;;;;28.52;41.04;101539.53;5121624;27;45284;-60
2023/10/02 07:51:36;;;;;;;;;21.50;19.75;;;;;28.56;41.48;101547.31;5121965;27;45448;-59
2023/10/02 07:54:03;;;;;;;;;22.00;18.25;;;;;28.56;41.48;101552.84;5122223;27;45320;-62
2023/10/02 07:56:29;;;;;;;;;20.00;18.25;;;;;28.57;41.40;101549.06;5122566;27;45317;-60
2023/10/02 07:59:01;;;;;;;;;20.00;18.50;;;;;28.65;41.22;101552.84;5122295;27;45409;-59
2023/10/02 08:01:27;;;;;;;;;17.75;15.25;;;;;28.63;40.50;101547.50;5122692;27;45497;-60
2023/10/02 08:03:56;;;;;;;;;22.50;18.25;;;;;28.68;40.50;101558.88;5122048;27;45333;-60
2023/10/02 08:06:33;;;;;;;;;21.00;17.50;;;;;28.66;40.34;101549.94;5121738;27;45604;-61
2023/10/02 08:11:49;;;;;;;;;20.75;20.75;;;;;28.63;40.56;101560.44;5107511;27;45507;-60
2023/10/02 08:17:08;;;;;;;;;23.00;20.50;;;;;28.60;40.03;101558.88;5122066;27;45277;-61
2023/10/02 08:19:36;;;;;;;;;22.75;18.00;;;;;28.69;40.09;101557.00;5119664;27;45404;-60
2023/10/02 08:22:05;;;;;;;;;16.50;16.50;;;;;28.73;40.33;101559.25;5120167;27;45308;-61
2023/10/02 08:24:32;;;;;;;;;21.50;18.50;;;;;28.80;40.17;101562.25;5121966;27;45456;-60
2023/10/02 08:26:59;;;;;;;;;21.25;19.25;;;;;28.87;40.57;101560.53;5121449;27;46343;-61
2023/10/02 08:29:26;;;;;;;;;22.50;20.50;;;;;28.80;40.81;101559.47;5121324;27;54273;-61
2023/10/02 08:31:53;;;;;;;;;21.50;20.75;;;;;28.84;40.60;101558.97;5122017;27;45504;-61
2023/10/02 08:34:25;;;;;;;;;23.25;17.25;;;;;28.79;40.72;101543.94;5120376;27;45534;-60
2023/10/02 08:37:05;;;;;;;;;22.50;19.50;;;;;28.94;40.27;101567.94;5121042;27;45311;-60
2023/10/02 08:39:40;;;;;;;;;28.50;21.00;;;;;28.88;40.57;101562.25;5121022;27;45327;-61
2023/10/02 08:42:09;;;;;;;;;20.50;18.75;;;;;29.03;39.82;101559.69;5121039;27;45346;-61
2023/10/02 08:44:40;;;;;;;;;13.00;12.00;;;;;28.74;40.18;101562.88;5120930;27;45262;-60
2023/10/02 08:47:06;;;;;;;;;18.25;16.75;;;;;28.84;39.85;101560.84;5121337;27;47386;-60
2023/10/02 08:49:34;;;;;;;;;24.25;19.00;;;;;28.86;39.73;101545.00;5120857;27;45441;-60
2023/10/02 08:52:03;;;;;;;;;22.75;20.00;;;;;28.89;39.88;101551.06;5121565;27;45767;-60
2023/10/02 08:54:31;;;;;;;;;25.25;16.75;;;;;28.85;39.74;101554.31;5121117;27;46136;-61
2023/10/02 08:57:08;;;;;;;;;18.50;18.50;;;;;28.90;39.56;101546.41;5120555;27;45404;-61
2023/10/02 08:59:40;;;;;;;;;13.00;7.25;;;;;29.03;39.21;101549.50;5120878;27;45301;-61
2023/10/02 09:02:13;;;;;;;;;24.25;19.50;;;;;29.22;39.71;101546.41;5121562;27;45358;-61
2023/10/02 09:04:40;;;;;;;;;23.50;20.75;;;;;29.34;39.65;101550.56;5120984;27;46125;-60
2023/10/02 09:07:21;;;;;;;;;19.00;17.75;;;;;29.51;38.98;101548.69;5119290;27;45381;-60
2023/10/02 09:09:47;;;;;;;;;22.25;19.25;;;;;29.34;39.42;101550.56;5117106;27;45824;-60
2023/10/02 09:12:17;;;;;;;;;22.25;20.00;;;;;29.34;39.14;101545.06;5121152;27;45646;-60
2023/10/02 09:14:42;;;;;;;;;19.50;19.00;;;;;29.48;38.54;101546.28;5102139;27;45560;-60
2023/10/02 09:17:33;;;;;;;;;22.50;20.00;;;;;29.55;38.49;101539.00;5120006;27;46105;-59
2023/10/02 09:20:03;;;;;;;;;22.00;19.25;;;;;29.49;38.43;101534.19;5120674;27;45372;-61
2023/10/02 09:22:34;;;;;;;;;26.25;23.50;;;;;29.41;38.69;101525.91;5120189;27;45409;-61
2023/10/02 09:25:09;;;;;;;;;20.00;18.50;;;;;29.48;38.04;101535.22;5098805;27;46933;-61
2023/10/02 09:27:59;;;;;;;;;26.50;20.50;;;;;29.63;38.29;101533.47;5120165;27;46502;-61
2023/10/02 09:30:36;;;;;;;;;28.25;20.25;;;;;29.77;37.67;101542.97;5120621;27;45334;-60
2023/10/02 09:33:22;;;;;;;;;20.50;20.50;;;;;29.98;37.99;101545.16;5120720;27;45485;-61
2023/10/02 09:35:50;;;;;;;;;24.25;20.25;;;;;30.11;37.46;101539.09;5119956;27;45588;-60
2023/10/02 09:38:16;;;;;;;;;19.00;17.25;;;;;30.11;37.18;101528.03;5120066;27;46377;-60
2023/10/02 09:43:41;;;;;;;;;19.75;19.00;;;;;30.30;36.72;101525.69;5074574;27;45307;-61
2023/10/02 09:46:21;;;;;;;;;25.25;19.25;;;;;30.37;37.31;101523.91;5119481;27;45551;-60
2023/10/02 09:49:21;;;;;;;;;22.75;19.50;;;;;30.55;36.93;101514.50;5102033;27;46063;-59
2023/10/02 09:52:12;;;;;;;;;25.25;20.25;;;;;30.62;36.58;101508.09;5113820;27;45267;-61
2023/10/02 09:55:07;;;;;;;;;28.75;21.25;;;;;30.71;36.87;101506.97;5120157;27;45304;-62
2023/10/02 09:57:38;;;;;;;;;22.25;19.00;;;;;30.66;36.52;101479.00;5116700;27;45858;-61
2023/10/02 10:00:33;;;;;;;;;21.50;19.50;;;;;30.97;37.12;101490.00;5119107;27;47369;-60
2023/10/02 10:03:24;;;;;;;;;22.75;21.75;;;;;31.10;36.61;101501.34;5119919;27;45257;-61
2023/10/02 10:06:08;;;;;;;;;17.25;17.25;;;;;31.16;35.75;101508.91;5118796;27;45348;-60
2023/10/02 10:11:42;;;;;;;;;23.25;19.50;;;;;31.39;36.31;101495.03;5120168;27;45705;-59
2023/10/02 10:14:36;;;;;;;;;12.75;12.75;;;;;31.37;36.21;101496.28;5119325;27;45958;-61
2023/10/02 10:17:49;;;;;;;;;24.25;19.75;;;;;31.42;36.37;101489.13;5119937;27;45345;-61
2023/10/02 10:20:18;;;;;;;;;23.50;21.00;;;;;31.49;36.07;101494.75;5116379;27;45271;-60
2023/10/02 10:22:55;;;;;;;;;27.25;21.50;;;;;31.61;36.28;101484.94;5119197;27;45429;-61
2023/10/02 10:28:08;;;;;;;;;25.50;22.50;;;;;31.72;35.36;101476.19;5120137;27;45358;-60
2023/10/02 10:30:46;;;;;;;;;22.50;22.00;;;;;31.75;35.79;101472.16;5119100;27;46016;-61
2023/10/02 10:35:55;;;;;;;;;24.50;21.25;;;;;31.78;35.04;101463.47;5119273;27;45411;-61
2023/10/02 10:41:31;;;;;;;;;22.50;18.75;;;;;31.91;35.28;101472.81;5099363;27;45285;-60
2023/10/02 10:43:57;;;;;;;;;17.75;17.50;;;;;32.01;35.20;101466.13;5116395;27;46414;-61
2023/10/02 10:46:27;;;;;;;;;27.50;21.50;;;;;32.20;34.75;101455.31;5119384;27;45358;-60
2023/10/02 10:48:59;;;;;;;;;22.50;20.00;;;;;32.22;34.87;101463.47;5119905;27;45342;-62
2023/10/02 10:51:28;;;;;;;;;26.50;20.00;;;;;32.22;34.75;101450.44;5118404;27;45396;-61
2023/10/02 10:54:13;;;;;;;;;18.00;18.00;;;;;32.15;34.80;101446.69;5119388;27;46210;-60
2023/10/02 10:56:43;;;;;;;;;25.75;19.00;;;;;32.21;34.82;101456.19;5119312;27;45408;-61
2023/10/02 10:59:12;;;;;;;;;18.50;18.00;;;;;32.29;33.99;101450.53;5119724;27;45365;-62
2023/10/02 11:02:15;;;;;;;;;24.75;22.00;;;;;32.32;34.57;101439.03;5113549;27;45586;-62
2023/10/02 11:04:47;;;;;;;;;20.00;17.25;;;;;32.44;33.59;101437.44;5111821;27;46087;-62
2023/10/02 11:07:21;;;;;;;;;16.00;15.00;;;;;32.71;33.74;101427.53;5118752;27;45350;-62
2023/10/02 11:10:14;;;;;;;;;23.25;19.25;;;;;33.06;33.18;101422.94;5115570;27;45344;-61
2023/10/02 11:12:40;;;;;;;;;26.00;21.50;;;;;33.31;32.89;101407.56;5115379;27;45566;-61
2023/10/02 11:15:43;;;;;;;;;26.25;21.00;;;;;33.63;32.95;101408.81;5097149;27;45466;-61
2023/10/02 11:18:18;;;;;;;;;23.50;17.50;;;;;33.95;32.09;101410.06;5106394;27;45441;-62
2023/10/02 11:20:49;;;;;;;;;23.25;17.50;;;;;34.21;31.95;101409.31;5118858;27;45414;-61
2023/10/02 11:23:22;;;;;;;;;19.00;18.50;;;;;34.51;31.44;101404.31;5122754;27;45298;-62
2023/10/02 11:25:54;;;;;;;;;23.75;21.75;;;;;34.73;30.42;101404.97;5122569;27;47189;-62
2023/10/02 11:28:32;;;;;;;;;24.75;22.75;;;;;35.04;30.50;101409.97;5122929;27;45362;-62
2023/10/02 11:31:29;;;;;;;;;24.25;20.00;;;;;35.27;30.06;101408.47;5123134;27;45400;-61
2023/10/02 11:34:08;;;;;;;;;19.75;17.75;;;;;35.64;29.77;101411.63;5122433;27;45339;-61
2023/10/02 11:36:38;;;;;;;;;22.00;18.50;;;;;35.81;29.65;101417.63;5122206;27;45367;-61
2023/10/02 11:39:09;;;;;;;;;22.50;21.00;;;;;35.99;28.99;101423.31;5109529;27;45305;-62
2023/10/02 11:41:39;;;;;;;;;25.00;21.25;;;;;36.23;28.26;101417.03;5122593;27;45401;-62
2023/10/02 11:44:06;;;;;;;;;20.00;17.75;;;;;36.56;28.36;101410.38;5122404;27;45324;-63
2023/10/02 11:46:32;;;;;;;;;19.25;18.50;;;;;37.33;27.88;101404.44;5103935;27;46154;-61
2023/10/02 11:48:58;;;;;;;;;20.50;15.50;;;;;38.22;27.02;101408.56;5122243;27;45341;-60
2023/10/02 11:51:28;;;;;;;;;18.25;16.50;;;;;39.03;25.26;101402.44;5122297;27;45323;-58
2023/10/02 11:53:57;;;;;;;;;15.75;14.50;;;;;39.93;24.71;101393.59;5122783;27;45290;-58
2023/10/02 11:56:24;;;;;;;;;20.50;18.75;;;;;40.64;23.33;101383.78;5122430;27;46368;-59
2023/10/02 11:58:52;;;;;;;;;16.50;13.25;;;;;41.20;22.83;101388.44;5122832;27;45299;-59
2023/10/02 12:01:19;;;;;;;;;18.25;15.75;;;;;42.50;21.58;101390.50;5122407;27;45549;-59
2023/10/02 12:03:44;;;;;;;;;22.50;19.50;;;;;43.33;20.55;101374.03;5103852;27;45903;-59
2023/10/02 12:06:19;;;;;;;;;19.75;17.25;;;;;44.23;19.60;101383.25;5121186;27;45612;-59
2023/10/02 12:08:44;;;;;;;;;19.25;17.75;;;;;45.10;18.55;101374.59;5122585;27;45321;-59
2023/10/02 12:11:13;;;;;;;;;25.50;19.50;;;;;45.77;18.56;101378.97;5122309;27;45226;-59
2023/10/02 12:13:40;;;;;;;;;17.50;16.50;;;;;46.45;17.76;101367.88;5122433;27;45473;-59
2023/10/02 12:16:07;;;;;;;;;18.50;16.25;;;;;47.15;17.69;101364.78;5121938;27;47055;-58
2023/10/02 12:18:34;;;;;;;;;20.75;17.75;;;;;47.67;16.98;101346.88;5121826;27;45367;-58
2023/10/02 12:21:00;;;;;;;;;20.75;17.25;;;;;48.34;16.88;101364.75;5120230;27;45281;-59
2023/10/02 12:23:26;;;;;;;;;18.25;14.50;;;;;48.85;16.01;101354.25;5122117;27;45233;-60
2023/10/02 12:25:52;;;;;;;;;25.00;19.75;;;;;48.91;15.37;101354.19;5103490;27;46383;-61
2023/10/02 12:28:17;;;;;;;;;22.50;17.00;;;;;48.23;15.91;101354.69;5122079;27;45209;-61
2023/10/02 12:30:43;;;;;;;;;27.00;20.75;;;;;47.33;16.23;101350.66;5121968;27;45371;-61
2023/10/02 12:33:09;;;;;;;;;18.25;13.50;;;;;46.55;16.99;101345.09;5121511;27;45480;-61
2023/10/02 12:35:37;;;;;;;;;21.75;17.50;;;;;45.62;17.33;101347.03;5120957;27;54954;-63
2023/10/02 12:38:07;;;;;;;;;14.75;13.25;;;;;44.86;18.46;101340.38;5121896;27;45343;-62
2023/10/02 12:40:33;;;;;;;;;22.00;17.00;;;;;44.43;18.76;101341.75;5121455;27;45211;-61
2023/10/02 12:43:03;;;;;;;;;20.75;16.75;;;;;43.86;19.33;101336.19;5121626;27;45384;-62
2023/10/02 12:45:35;;;;;;;;;17.75;16.75;;;;;43.28;19.54;101320.38;5120905;27;46501;-62
2023/10/02 12:48:06;;;;;;;;;17.75;15.25;;;;;42.74;20.56;101320.50;5121682;27;45382;-62
2023/10/02 12:50:36;;;;;;;;;21.75;16.75;;;;;42.39;20.63;101308.91;5121722;27;45173;-61
2023/10/02 12:53:01;;;;;;;;;22.25;16.25;;;;;42.11;21.10;101298.75;5120347;27;45470;-60
2023/10/02 12:55:26;;;;;;;;;17.50;14.75;;;;;41.87;20.83;101290.56;5110189;27;46584;-60
2023/10/02 12:57:52;;;;;;;;;18.50;13.25;;;;;41.79;21.50;101293.84;5121338;27;45354;-60
2023/10/02 13:00:17;;;;;;;;;13.00;13.00;;;;;41.75;21.41;101284.25;5121182;27;59321;-60
2023/10/02 13:02:43;;;;;;;;;14.50;13.25;;;;;41.82;21.01;101286.84;5121473;27;45547;-61
2023/10/02 13:05:09;;;;;;;;;14.75;14.25;;;;;41.73;21.09;101280.84;5120289;27;45908;-60
2023/10/02 13:07:35;;;;;;;;;13.00;11.50;;;;;41.94;21.26;101275.47;5119477;27;45283;-62
2023/10/02 13:10:00;;;;;;;;;19.50;13.75;;;;;42.24;21.52;101267.31;5121478;27;45365;-61
2023/10/02 13:12:25;;;;;;;;;19.50;13.50;;;;;42.50;21.18;101263.63;5121159;27;45511;-60
2023/10/02 13:14:51;;;;;;;;;19.25;16.25;;;;;42.88;19.96;101261.66;5121541;27;46114;-63
2023/10/02 13:17:16;;;;;;;;;21.25;14.75;;;;;43.36;19.69;101260.56;5120722;27;51445;-61
2023/10/02 13:19:45;;;;;;;;;17.25;14.50;;;;;43.78;19.73;101257.63;5119864;27;45432;-62
2023/10/02 13:22:10;;;;;;;;;16.50;15.50;;;;;44.29;19.05;101254.91;5119122;27;45429;-62
2023/10/02 13:24:36;;;;;;;;;17.50;14.50;;;;;44.68;19.15;101258.88;5120719;27;46307;-62
2023/10/02 13:27:02;;;;;;;;;12.25;10.50;;;;;45.26;18.39;101250.03;5119974;27;45341;-63
2023/10/02 13:29:27;;;;;;;;;14.50;14.00;;;;;45.44;18.36;101249.34;5121345;27;45389;-62
2023/10/02 13:31:52;;;;;;;;;15.25;13.25;;;;;45.99;17.92;101236.91;5120935;27;46043;-62
2023/10/02 13:34:18;;;;;;;;;21.50;14.75;;;;;46.51;17.50;101233.38;5120585;27;45486;-62
2023/10/02 13:36:43;;;;;;;;;18.00;15.25;;;;;47.06;17.42;101240.50;5120437;27;45386;-62
2023/10/02 13:39:16;;;;;;;;;19.25;15.50;;;;;47.28;17.16;101236.28;5121060;27;45272;-62
2023/10/02 13:41:42;;;;;;;;;17.00;16.00;;;;;47.34;16.50;101229.41;5120621;27;45511;-61
2023/10/02 13:44:07;;;;;;;;;20.00;16.00;;;;;47.51;16.33;101237.41;5119636;27;46132;-62
2023/10/02 13:46:38;;;;;;;;;10.50;9.50;;;;;47.70;15.98;101232.63;5120661;27;45526;-61
2023/10/02 13:49:05;;;;;;;;;19.75;12.75;;;;;47.85;16.34;101237.22;5120899;27;45404;-62
2023/10/02 13:51:31;;;;;;;;;16.00;13.50;;;;;48.01;16.32;101238.66;5120305;27;46128;-62
2023/10/02 13:53:57;;;;;;;;;23.00;16.50;;;;;48.31;15.87;101229.66;5120399;27;46489;-61
2023/10/02 13:56:26;;;;;;;;;20.00;15.00;;;;;48.71;15.67;101218.72;5120307;27;45462;-62
2023/10/02 13:58:53;;;;;;;;;18.25;16.75;;;;;48.91;15.46;101214.66;5120559;27;45441;-61
2023/10/02 14:01:20;;;;;;;;;12.75;12.75;;;;;48.63;15.09;101205.22;5120315;27;45619;-61
2023/10/02 14:03:49;;;;;;;;;20.00;17.00;;;;;48.88;15.23;101207.59;5120515;27;46321;-61
2023/10/02 14:06:16;;;;;;;;;17.00;13.25;;;;;48.80;14.61;101194.94;5119678;27;45330;-61
2023/10/02 14:08:41;;;;;;;;;16.75;15.75;;;;;48.84;15.11;101195.13;5120480;27;45321;-63
2023/10/02 14:11:09;;;;;;;;;14.75;14.75;;;;;48.86;15.07;101195.66;5120093;27;45449;-61
2023/10/02 14:13:36;;;;;;;;;13.50;11.75;;;;;48.72;14.99;101183.41;5120101;27;46002;-61
2023/10/02 14:16:07;;;;;;;;;18.50;14.25;;;;;48.85;15.81;101188.28;5120113;27;45387;-60
2023/10/02 14:18:35;;;;;;;;;15.50;12.50;;;;;48.87;14.87;101186.81;5120489;27;45357;-60
2023/10/02 14:21:05;;;;;;;;;18.25;14.75;;;;;48.98;14.98;101184.59;5119558;27;45407;-61
2023/10/02 14:23:31;;;;;;;;;20.25;13.25;;;;;48.79;15.00;101186.69;5120080;27;45441;-61
2023/10/02 14:25:59;;;;;;;;;15.25;13.25;;;;;48.93;15.34;101179.00;5119842;27;45342;-61
2023/10/02 14:28:25;;;;;;;;;16.00;15.00;;;;;48.88;14.64;101168.56;5119370;27;45343;-60
2023/10/02 14:30:51;;;;;;;;;15.00;13.00;;;;;48.82;15.11;101160.47;5119002;27;45613;-62
2023/10/02 14:33:17;;;;;;;;;17.25;14.00;;;;;48.75;15.10;101157.97;5119763;27;45557;-61
2023/10/02 14:35:43;;;;;;;;;15.50;13.50;;;;;48.78;14.93;101154.53;5119761;27;45296;-61
2023/10/02 14:38:08;;;;;;;;;14.75;10.50;;;;;48.55;15.23;101157.56;5119925;27;45378;-61
2023/10/02 14:40:34;;;;;;;;;20.00;14.00;;;;;48.22;15.30;101168.13;5100893;27;55931;-61
2023/10/02 14:43:02;;;;;;;;;20.75;15.50;;;;;48.27;15.63;101148.94;5119790;27;45438;-60
2023/10/02 14:45:29;;;;;;;;;11.50;10.50;;;;;48.38;15.13;101149.59;5119343;27;45492;-61
2023/10/02 14:47:58;;;;;;;;;13.25;12.00;;;;;48.19;15.37;101143.97;5119599;27;45338;-61
2023/10/02 14:50:24;;;;;;;;;12.75;9.75;;;;;47.89;15.64;101153.03;5119473;27;45287;-61
2023/10/02 14:52:52;;;;;;;;;13.25;11.50;;;;;47.84;15.51;101138.88;5118637;27;45310;-58
2023/10/02 14:55:18;;;;;;;;;10.25;10.25;;;;;47.51;15.41;101121.75;5119574;27;45276;-58
2023/10/02 14:57:45;;;;;;;;;13.50;12.50;;;;;47.60;15.35;101131.28;5123139;27;45322;-58
2023/10/02 15:00:14;;;;;;;;;14.25;13.75;;;;;47.52;15.88;101140.50;5123604;27;45472;-58
2023/10/02 15:02:42;;;;;;;;;11.75;11.00;;;;;47.35;15.84;101135.34;5123190;27;46215;-59
2023/10/02 15:05:09;;;;;;;;;13.75;12.50;;;;;47.22;15.61;101141.75;5122447;27;45422;-60
2023/10/02 15:07:36;;;;;;;;;13.25;12.25;;;;;47.05;15.88;101130.06;5122591;27;45395;-59
2023/10/02 15:10:01;;;;;;;;;14.75;14.00;;;;;46.91;16.04;101126.25;5123177;27;45338;-59
2023/10/02 15:12:30;;;;;;;;;15.50;10.00;;;;;46.61;15.98;101119.81;5122936;27;46057;-59
2023/10/02 15:14:55;;;;;;;;;14.00;11.00;;;;;46.24;16.79;101108.28;5123252;27;45317;-59
2023/10/02 15:17:22;;;;;;;;;12.75;9.75;;;;;45.97;17.00;101109.66;5102394;27;45292;-59
2023/10/02 15:19:47;;;;;;;;;15.75;12.75;;;;;45.50;16.98;101079.13;5122893;27;45216;-58
2023/10/02 15:22:13;;;;;;;;;9.25;8.50;;;;;45.47;17.67;101105.19;5104265;27;46965;-59
2023/10/02 15:24:38;;;;;;;;;18.50;13.50;;;;;45.48;17.42;101108.88;5104378;27;45330;-59
2023/10/02 15:27:05;;;;;;;;;16.50;10.75;;;;;45.28;17.72;101104.16;5122882;27;45333;-58
2023/10/02 15:29:30;;;;;;;;;17.75;11.75;;;;;45.12;18.17;101106.25;5123237;27;45651;-58
2023/10/02 15:31:55;;;;;;;;;13.00;11.25;;;;;45.11;18.26;101109.34;5110624;27;45415;-58
2023/10/02 15:34:21;;;;;;;;;14.50;11.75;;;;;44.85;18.51;101100.13;5123140;27;45342;-58
2023/10/02 15:36:47;;;;;;;;;9.75;9.50;;;;;44.72;18.48;101098.78;5122611;27;45352;-60
2023/10/02 15:39:14;;;;;;;;;14.25;9.50;;;;;44.60;19.09;101092.56;5122767;27;45395;-59
2023/10/02 15:41:44;;;;;;;;;12.00;10.50;;;;;44.53;19.40;101092.00;5122494;27;45464;-59
2023/10/02 15:44:15;;;;;;;;;15.00;11.50;;;;;44.38;19.14;101095.75;5121316;27;45507;-59
2023/10/02 15:46:45;;;;;;;;;14.25;12.25;;;;;44.23;19.20;101087.28;5122379;27;45279;-59
2023/10/02 15:49:12;;;;;;;;;10.25;7.75;;;;;44.08;19.11;101087.28;5122627;27;45456;-59
2023/10/02 15:51:37;;;;;;;;;9.00;8.25;;;;;43.96;19.00;101087.59;5121971;27;45482;-59
2023/10/02 15:54:03;;;;;;;;;12.25;11.00;;;;;43.49;19.61;101064.34;5122656;27;45312;-59
2023/10/02 15:56:29;;;;;;;;;15.00;10.25;;;;;43.36;20.42;101089.19;5122603;27;45331;-59
2023/10/02 15:58:55;;;;;;;;;17.00;13.25;;;;;43.16;20.05;101094.78;5117385;27;45416;-58
2023/10/02 16:01:20;;;;;;;;;13.50;10.75;;;;;43.16;20.70;101088.28;5119538;27;49368;-59
2023/10/02 16:03:50;;;;;;;;;10.75;9.00;;;;;42.90;20.65;101088.19;5122474;27;45340;-59
2023/10/02 16:06:18;;;;;;;;;15.00;13.25;;;;;42.73;21.14;101083.84;5121755;27;45323;-59
2023/10/02 16:08:47;;;;;;;;;11.50;11.50;;;;;42.62;21.29;101088.59;5111144;27;45382;-59
2023/10/02 16:11:16;;;;;;;;;14.25;12.00;;;;;42.62;20.78;101080.16;5120897;27;45415;-59
2023/10/02 16:13:41;;;;;;;;;12.75;10.25;;;;;42.46;21.15;101076.38;5122294;27;45462;-59
2023/10/02 16:16:10;;;;;;;;;10.75;9.50;;;;;42.23;22.12;101059.88;5121766;27;46802;-59
2023/10/02 16:18:36;;;;;;;;;14.25;9.50;;;;;41.97;21.98;101050.41;5121962;27;45336;-62
2023/10/02 16:21:02;;;;;;;;;12.75;12.50;;;;;41.68;22.42;101052.69;5120475;27;45341;-62
2023/10/02 16:23:28;;;;;;;;;16.25;11.25;;;;;41.46;22.65;101058.38;5122009;27;45247;-61
2023/10/02 16:25:53;;;;;;;;;14.50;11.25;;;;;41.34;22.23;101054.91;5121978;27;45185;-61
2023/10/02 16:28:20;;;;;;;;;14.00;10.75;;;;;41.27;22.42;101034.53;5121987;27;45513;-62
2023/10/02 16:30:46;;;;;;;;;20.50;13.00;;;;;41.21;22.88;101034.75;5121682;27;47100;-61
2023/10/02 16:33:11;;;;;;;;;8.25;6.75;;;;;41.03;23.55;101031.16;5121821;27;45294;-62
2023/10/02 16:35:36;;;;;;;;;15.25;12.25;;;;;40.88;23.08;101033.81;5121706;27;45381;-62
2023/10/02 16:38:04;;;;;;;;;11.75;10.25;;;;;40.70;23.36;101040.63;5120911;27;45319;-61
2023/10/02 16:40:32;;;;;;;;;12.25;10.50;;;;;40.61;23.78;101047.78;5121279;27;46440;-62
2023/10/02 16:42:59;;;;;;;;;11.50;10.50;;;;;40.50;23.80;101053.53;5121572;27;45353;-62
2023/10/02 16:45:25;;;;;;;;;11.75;9.25;;;;;40.35;24.06;101052.22;5121059;27;45568;-58
2023/10/02 16:47:52;;;;;;;;;10.25;10.25;;;;;40.17;24.62;101044.06;5120523;27;45769;-58
2023/10/02 16:50:17;;;;;;;;;13.25;10.00;;;;;39.96;24.24;101036.44;5120482;27;47072;-59
2023/10/02 16:52:45;;;;;;;;;16.00;12.25;;;;;39.75;24.37;101048.41;5119348;27;45388;-59
2023/10/02 16:55:16;;;;;;;;;12.50;12.50;;;;;39.55;24.60;101034.91;5121224;27;45335;-59
2023/10/02 16:57:44;;;;;;;;;13.00;8.50;;;;;39.41;24.97;101017.53;5120987;27;45500;-58
2023/10/02 17:00:14;;;;;;;;;10.50;10.50;;;;;39.21;25.12;101034.00;5120823;27;45509;-58
2023/10/02 17:02:43;;;;;;;;;12.00;11.50;;;;;39.08;25.30;101042.69;5119022;27;45850;-59
2023/10/02 17:05:11;;;;;;;;;14.50;13.75;;;;;38.84;25.81;101027.91;5115428;27;45667;-59
2023/10/02 17:07:40;;;;;;;;;14.50;10.50;;;;;38.64;25.74;101038.69;5118304;27;45499;-58
2023/10/02 17:10:12;;;;;;;;;13.00;10.75;;;;;38.58;26.06;101040.53;5112891;27;46174;-59
2023/10/02 17:12:41;;;;;;;;;10.25;8.75;;;;;38.48;26.36;101032.72;5118732;27;45421;-58
2023/10/02 17:15:09;;;;;;;;;12.75;10.00;;;;;38.33;26.43;101037.16;5118197;27;45527;-58
2023/10/02 17:17:38;;;;;;;;;10.50;10.00;;;;;38.33;26.17;101038.00;5106882;27;45504;-58
2023/10/02 17:20:06;;;;;;;;;9.00;9.00;;;;;38.23;26.65;101034.97;5118720;27;45334;-58
2023/10/02 17:22:36;;;;;;;;;16.75;16.00;;;;;38.05;27.11;101023.88;5120426;27;45363;-63
2023/10/02 17:25:11;;;;;;;;;11.75;7.50;;;;;38.03;26.95;101038.09;5120502;27;45349;-61
2023/10/02 17:27:38;;;;;;;;;12.75;12.75;;;;;37.92;27.29;101029.72;5120694;27;45475;-63
2023/10/02 17:30:05;;;;;;;;;10.75;10.25;;;;;37.75;27.56;101021.22;5120901;27;46237;-61
2023/10/02 17:32:33;;;;;;;;;9.25;9.25;;;;;37.73;27.47;101032.63;5112443;27;45535;-61
2023/10/02 17:35:00;;;;;;;;;10.50;9.00;;;;;37.66;27.57;101031.06;5111917;27;45935;-61
2023/10/02 17:37:25;;;;;;;;;10.00;10.00;;;;;37.68;27.78;101028.88;5119156;27;45427;-62
2023/10/02 17:39:51;;;;;;;;;6.75;6.50;;;;;37.60;27.64;101027.25;5119814;27;46499;-62
2023/10/02 17:42:16;;;;;;;;;10.25;10.00;;;;;37.34;27.59;101008.97;5120433;27;45547;-61
2023/10/02 17:44:41;;;;;;;;;8.75;8.75;;;;;37.38;28.11;101023.31;5120277;27;45413;-62
2023/10/02 17:47:07;;;;;;;;;10.25;8.25;;;;;37.29;28.02;101019.16;5120839;27;45379;-62
2023/10/02 17:49:32;;;;;;;;;7.25;7.25;;;;;37.20;28.21;101010.25;5119449;27;56427;-63
2023/10/02 17:51:59;;;;;;;;;14.75;8.25;;;;;37.18;28.26;101023.59;5120259;27;50297;-63
2023/10/02 17:54:24;;;;;;;;;10.00;10.00;;;;;37.21;28.27;101016.69;5120573;27;45437;-61
2023/10/02 17:56:49;;;;;;;;;12.00;8.00;;;;;37.05;28.44;101005.06;5120505;27;45483;-62
2023/10/02 17:59:16;;;;;;;;;10.50;9.25;;;;;36.91;28.63;100995.19;5120810;27;46158;-64
2023/10/02 18:01:41;;;;;;;;;12.75;10.25;;;;;36.98;28.78;101006.25;5120812;27;45393;-63
2023/10/02 18:04:11;;;;;;;;;12.50;11.00;;;;;36.99;28.63;101005.19;5120761;27;45332;-62
2023/10/02 18:06:38;;;;;;;;;10.00;7.00;;;;;36.94;28.82;101003.09;5115267;27;45563;-63
2023/10/02 18:09:05;;;;;;;;;12.00;12.00;;;;;36.95;28.82;100996.41;5106286;27;47072;-61
2023/10/02 18:11:31;;;;;;;;;17.25;11.75;;;;;36.84;29.37;101002.78;5115269;27;45318;-61
2023/10/02 18:13:56;;;;;;;;;9.75;9.00;;;;;36.53;29.08;100986.22;5117484;27;45318;-61
2023/10/02 18:16:22;;;;;;;;;10.50;10.00;;;;;36.55;29.39;100987.69;5113040;27;52032;-61
2023/10/02 18:18:47;;;;;;;;;13.00;13.00;;;;;36.58;29.23;100997.56;5118425;27;47344;-62
2023/10/02 18:21:12;;;;;;;;;7.50;7.50;;;;;36.50;29.28;100975.50;5108049;27;45353;-61
2023/10/02 18:23:38;;;;;;;;;13.50;10.50;;;;;36.49;29.64;100973.84;5118551;27;45409;-60
2023/10/02 18:26:04;;;;;;;;;11.25;9.25;;;;;36.41;29.35;100974.16;5118971;27;46103;-61